Time;durP1;ratioP1;P1;durP2;ratioP2;P2;SDS_P1;SDS_P2;PMS_P1;PMS_P2;Temp;Humidity;BMP_temperature;BMP_pressure;BME280_temperature;BME280_humidity;BME280_pressure;Samples;Min_cycle;Max_cycle;Signal;HPM_P1;HPM_P2
2023/06/18 00:01:28;;;;;;;6.77;5.33;;;15.20;1.00;;;;;;5093486;28;20182;-78
2023/06/18 00:03:54;;;;;;;7.03;5.30;;;15.20;1.00;;;;;;5094617;28;20194;-77
2023/06/18 00:06:19;;;;;;;6.70;5.03;;;15.20;1.00;;;;;;5095430;28;20633;-78
2023/06/18 00:08:45;;;;;;;7.40;5.00;;;15.10;1.00;;;;;;5094470;28;20190;-77
2023/06/18 00:11:11;;;;;;;8.00;5.23;;;15.10;1.00;;;;;;5094605;28;20619;-78
2023/06/18 00:13:36;;;;;;;7.07;5.10;;;15.00;1.00;;;;;;5093005;28;20194;-77
2023/06/18 00:16:02;;;;;;;6.43;5.10;;;15.00;1.00;;;;;;5094112;28;20590;-78
2023/06/18 00:18:28;;;;;;;11.20;4.73;;;15.00;1.00;;;;;;5092930;28;20276;-78
2023/06/18 00:20:53;;;;;;;8.03;5.57;;;15.00;1.00;;;;;;5093751;28;20641;-77
2023/06/18 00:23:19;;;;;;;6.70;5.37;;;14.90;1.00;;;;;;5093671;28;20640;-78
2023/06/18 00:25:45;;;;;;;7.57;5.17;;;15.00;1.00;;;;;;5093901;28;20186;-78
2023/06/18 00:28:11;;;;;;;8.23;5.40;;;14.90;1.00;;;;;;5092633;28;20182;-78
2023/06/18 00:30:37;;;;;;;8.20;5.40;;;14.90;1.00;;;;;;5093942;28;20167;-78
2023/06/18 00:33:03;;;;;;;6.53;5.43;;;14.90;1.00;;;;;;5093814;28;20190;-77
2023/06/18 00:35:28;;;;;;;6.90;5.53;;;14.80;1.00;;;;;;5093707;28;20671;-78
2023/06/18 00:37:54;;;;;;;7.23;5.20;;;14.80;1.00;;;;;;5093306;28;20170;-77
2023/06/18 00:40:20;;;;;;;7.77;5.40;;;14.70;1.00;;;;;;5093670;28;20232;-78
2023/06/18 00:42:48;;;;;;;9.20;5.70;;;14.70;1.00;;;;;;5091913;28;20267;-78
2023/06/18 00:45:14;;;;;;;7.40;5.53;;;14.60;1.00;;;;;;5093182;28;20180;-77
2023/06/18 00:47:42;;;;;;;6.77;5.33;;;14.70;1.00;;;;;;5093455;28;20570;-77
2023/06/18 00:50:12;;;;;;;8.20;5.00;;;14.60;1.00;;;;;;5091840;28;20197;-77
2023/06/18 00:52:44;;;;;;;9.10;6.00;;;14.60;1.00;;;;;;5093594;28;20190;-77
2023/06/18 00:55:12;;;;;;;7.70;5.17;;;14.60;1.00;;;;;;5093439;28;20161;-76
2023/06/18 00:57:38;;;;;;;6.60;5.27;;;14.60;1.00;;;;;;5091896;28;20181;-77
2023/06/18 01:00:10;;;;;;;9.20;5.17;;;14.60;1.00;;;;;;5093237;28;20181;-77
2023/06/18 01:02:37;;;;;;;8.20;5.20;;;14.50;1.00;;;;;;5093136;28;20201;-77
2023/06/18 01:05:03;;;;;;;7.70;5.13;;;14.40;1.00;;;;;;5092811;28;20178;-78
2023/06/18 01:07:29;;;;;;;6.90;5.60;;;14.50;1.00;;;;;;5092916;28;20243;-78
2023/06/18 01:09:54;;;;;;;8.63;5.80;;;14.40;1.00;;;;;;5091429;28;20308;-78
2023/06/18 01:12:29;;;;;;;6.27;5.33;;;14.40;1.00;;;;;;5093074;28;20384;-78
2023/06/18 01:14:56;;;;;;;6.50;5.00;;;14.30;1.00;;;;;;5092911;28;20150;-77
2023/06/18 01:17:22;;;;;;;8.00;6.13;;;14.20;1.00;;;;;;5092863;28;20175;-78
2023/06/18 01:20:15;;;;;;;8.93;5.43;;;14.20;1.00;;;;;;5092778;28;20186;-77
2023/06/18 01:23:06;;;;;;;7.80;5.30;;;14.20;1.00;;;;;;5088131;28;20212;-77
2023/06/18 01:25:32;;;;;;;8.80;5.03;;;14.10;1.00;;;;;;5091066;28;20281;-77
2023/06/18 01:28:03;;;;;;;7.13;5.60;;;14.10;1.00;;;;;;5091475;28;20273;-77
2023/06/18 01:30:29;;;;;;;6.93;5.23;;;14.10;1.00;;;;;;5092760;28;20202;-77
2023/06/18 01:32:54;;;;;;;5.97;5.23;;;14.10;1.00;;;;;;5092363;28;20296;-78
2023/06/18 01:35:21;;;;;;;8.07;5.80;;;14.00;1.00;;;;;;5092556;28;20209;-78
2023/06/18 01:38:05;;;;;;;5.90;5.10;;;14.00;1.00;;;;;;5092699;28;20170;-76
2023/06/18 01:41:00;;;;;;;8.87;5.67;;;14.00;1.00;;;;;;5092842;28;20684;-78
2023/06/18 01:43:41;;;;;;;10.10;5.23;;;14.00;1.00;;;;;;5091040;28;20198;-77
2023/06/18 01:46:10;;;;;;;7.20;5.27;;;14.00;1.00;;;;;;5092777;28;20155;-77
2023/06/18 01:48:41;;;;;;;7.03;5.80;;;14.00;1.00;;;;;;5092294;28;20194;-77
2023/06/18 01:51:07;;;;;;;8.07;5.53;;;14.00;1.00;;;;;;5092680;28;20163;-77
2023/06/18 01:53:34;;;;;;;6.03;5.43;;;14.00;1.00;;;;;;5091576;28;20205;-78
2023/06/18 01:56:02;;;;;;;9.63;5.77;;;14.00;1.00;;;;;;5092636;28;20186;-78
2023/06/18 01:58:31;;;;;;;10.50;5.50;;;14.00;1.00;;;;;;5091147;28;20178;-75
2023/06/18 02:00:58;;;;;;;5.87;5.27;;;13.90;1.00;;;;;;5092641;28;20257;-78
2023/06/18 02:03:24;;;;;;;6.87;5.37;;;13.90;1.00;;;;;;5091117;28;20229;-77
2023/06/18 02:05:50;;;;;;;7.23;5.60;;;13.80;1.00;;;;;;5092473;28;20185;-77
2023/06/18 02:08:16;;;;;;;6.90;5.37;;;13.80;1.00;;;;;;5090673;28;20178;-78
2023/06/18 02:10:42;;;;;;;7.63;5.87;;;13.90;1.00;;;;;;5090858;28;20178;-77
2023/06/18 02:13:09;;;;;;;7.13;5.30;;;13.80;1.00;;;;;;5091319;28;20285;-77
2023/06/18 02:15:35;;;;;;;7.33;5.90;;;13.80;1.00;;;;;;5092186;28;20542;-77
2023/06/18 02:18:00;;;;;;;6.10;4.90;;;13.80;1.00;;;;;;5092227;28;20185;-76
2023/06/18 02:20:26;;;;;;;8.90;5.73;;;13.80;1.00;;;;;;5090985;28;20205;-76
2023/06/18 02:22:52;;;;;;;6.87;5.37;;;13.80;1.00;;;;;;5092161;28;20205;-75
2023/06/18 02:25:19;;;;;;;6.43;5.27;;;13.80;1.00;;;;;;5092300;28;20701;-78
2023/06/18 02:27:55;;;;;;;9.33;5.80;;;13.80;1.00;;;;;;5094279;28;20185;-78
2023/06/18 02:30:21;;;;;;;6.27;5.67;;;13.70;1.00;;;;;;5096021;28;20544;-77
2023/06/18 02:32:48;;;;;;;6.60;5.60;;;13.70;1.00;;;;;;5095659;28;20248;-77
2023/06/18 02:35:15;;;;;;;6.20;5.47;;;13.60;1.00;;;;;;5095618;28;20171;-76
2023/06/18 02:37:41;;;;;;;8.53;5.60;;;13.60;1.00;;;;;;5095705;28;20254;-77
2023/06/18 02:40:07;;;;;;;7.80;5.80;;;13.60;1.00;;;;;;5097516;28;20198;-78
2023/06/18 02:42:33;;;;;;;6.97;5.47;;;13.60;1.00;;;;;;5095205;28;20174;-77
2023/06/18 02:44:59;;;;;;;9.37;5.93;;;13.50;1.00;;;;;;5094127;28;20224;-78
2023/06/18 02:47:25;;;;;;;7.30;6.20;;;13.50;1.00;;;;;;5095588;28;20167;-77
2023/06/18 02:49:50;;;;;;;9.90;6.03;;;13.50;1.00;;;;;;5095348;28;20267;-78
2023/06/18 02:52:16;;;;;;;9.97;6.30;;;13.50;1.00;;;;;;5095481;28;20250;-78
2023/06/18 02:54:43;;;;;;;6.80;5.43;;;13.40;1.00;;;;;;5095373;28;20174;-77
2023/06/18 02:57:09;;;;;;;7.17;5.93;;;13.50;1.00;;;;;;5095142;28;20162;-78
2023/06/18 02:59:34;;;;;;;6.90;5.37;;;13.50;1.00;;;;;;5095233;28;20181;-77
2023/06/18 03:02:04;;;;;;;6.47;5.87;;;13.50;1.00;;;;;;5095490;28;20181;-76
2023/06/18 03:04:30;;;;;;;8.17;5.87;;;13.40;1.00;;;;;;5094988;28;20198;-78
2023/06/18 03:06:58;;;;;;;6.47;5.70;;;13.40;1.00;;;;;;5093745;28;20272;-76
2023/06/18 03:09:24;;;;;;;6.97;6.00;;;13.40;1.00;;;;;;5095105;28;20240;-78
2023/06/18 03:11:49;;;;;;;9.07;5.27;;;13.40;1.00;;;;;;5095089;28;20170;-77
2023/06/18 03:14:15;;;;;;;7.40;5.83;;;13.40;1.00;;;;;;5094839;28;20178;-78
2023/06/18 03:16:40;;;;;;;9.43;6.47;;;13.30;1.00;;;;;;5095024;28;20545;-77
2023/06/18 03:19:06;;;;;;;8.70;5.70;;;13.30;1.00;;;;;;5094581;28;20653;-77
2023/06/18 03:21:32;;;;;;;8.90;6.00;;;13.30;1.00;;;;;;5096549;28;20166;-77
2023/06/18 03:23:58;;;;;;;8.80;5.60;;;13.30;1.00;;;;;;5094578;28;20205;-77
2023/06/18 03:26:24;;;;;;;9.17;6.10;;;13.30;1.00;;;;;;5094353;28;20175;-77
2023/06/18 03:28:50;;;;;;;7.17;5.70;;;13.30;1.00;;;;;;5094248;28;20677;-77
2023/06/18 03:31:15;;;;;;;6.13;5.50;;;13.20;1.00;;;;;;5094323;28;20649;-77
2023/06/18 03:33:41;;;;;;;7.93;6.00;;;13.20;1.00;;;;;;5092775;28;20198;-77
2023/06/18 03:36:07;;;;;;;6.67;5.83;;;13.20;1.00;;;;;;5094260;28;20166;-77
2023/06/18 03:38:33;;;;;;;9.47;6.10;;;13.20;1.00;;;;;;5093606;28;20668;-77
2023/06/18 03:40:58;;;;;;;9.33;5.93;;;13.20;1.00;;;;;;5094313;28;20214;-78
2023/06/18 03:43:24;;;;;;;8.90;5.53;;;13.20;1.00;;;;;;5093911;28;20244;-77
2023/06/18 03:45:49;;;;;;;9.30;6.20;;;13.20;1.00;;;;;;5094194;28;20224;-77
2023/06/18 03:48:15;;;;;;;9.07;5.60;;;13.20;1.00;;;;;;5093839;28;20174;-76
2023/06/18 03:50:41;;;;;;;8.70;5.70;;;13.20;1.00;;;;;;5092775;28;20178;-77
2023/06/18 03:53:06;;;;;;;5.90;5.03;;;13.20;1.00;;;;;;5093741;28;20261;-77
2023/06/18 03:55:32;;;;;;;6.43;5.43;;;13.10;1.00;;;;;;5093921;28;20183;-77
2023/06/18 03:57:57;;;;;;;6.83;5.87;;;13.20;1.00;;;;;;5092457;28;20542;-77
2023/06/18 04:00:23;;;;;;;6.93;5.67;;;13.20;1.00;;;;;;5092152;28;20251;-76
2023/06/18 04:02:48;;;;;;;6.90;5.70;;;13.20;1.00;;;;;;5093546;28;20277;-76
2023/06/18 04:05:14;;;;;;;8.57;6.27;;;13.20;1.00;;;;;;5093906;28;20170;-76
2023/06/18 04:07:40;;;;;;;8.30;5.27;;;13.20;1.00;;;;;;5092161;28;20182;-77
2023/06/18 04:10:06;;;;;;;7.73;5.33;;;13.20;1.00;;;;;;5093416;28;20270;-77
2023/06/18 04:12:32;;;;;;;6.40;5.80;;;13.20;1.00;;;;;;5093343;28;20197;-77
2023/06/18 04:14:57;;;;;;;8.47;5.77;;;13.20;1.00;;;;;;5093388;28;20177;-77
2023/06/18 04:17:25;;;;;;;5.77;5.17;;;13.20;1.00;;;;;;5093598;28;20170;-77
2023/06/18 04:19:51;;;;;;;11.33;5.57;;;13.20;1.00;;;;;;5092222;28;20178;-77
2023/06/18 04:22:17;;;;;;;8.60;6.53;;;13.20;1.00;;;;;;5091821;28;20170;-76
2023/06/18 04:24:42;;;;;;;6.40;5.60;;;13.30;1.00;;;;;;5093277;28;20186;-77
2023/06/18 04:27:08;;;;;;;6.60;5.57;;;13.30;1.00;;;;;;5091975;28;20182;-77
2023/06/18 04:29:33;;;;;;;8.50;6.17;;;13.30;1.00;;;;;;5093061;28;20564;-76
2023/06/18 04:31:59;;;;;;;7.03;5.60;;;13.40;1.00;;;;;;5091805;28;20588;-76
2023/06/18 04:34:24;;;;;;;8.53;5.80;;;13.30;1.00;;;;;;5091867;28;20741;-76
2023/06/18 04:36:50;;;;;;;6.90;5.40;;;13.40;1.00;;;;;;5091634;28;20167;-77
2023/06/18 04:39:15;;;;;;;6.60;5.70;;;13.40;1.00;;;;;;5091804;28;20186;-77
2023/06/18 04:41:41;;;;;;;6.13;5.50;;;13.50;1.00;;;;;;5093129;28;20213;-77
2023/06/18 04:44:06;;;;;;;7.77;5.43;;;13.50;1.00;;;;;;5093201;28;20186;-75
2023/06/18 04:46:33;;;;;;;7.53;6.10;;;13.60;1.00;;;;;;5092884;28;20171;-75
2023/06/18 04:48:59;;;;;;;8.30;6.07;;;13.60;1.00;;;;;;5092894;28;20703;-76
2023/06/18 04:51:25;;;;;;;6.80;6.10;;;13.70;1.00;;;;;;5091144;28;20263;-78
2023/06/18 04:53:52;;;;;;;10.93;6.07;;;13.70;1.00;;;;;;5091523;28;20229;-77
2023/06/18 04:56:18;;;;;;;6.33;5.73;;;13.80;1.00;;;;;;5092965;28;20227;-76
2023/06/18 04:58:43;;;;;;;6.10;5.50;;;13.90;1.00;;;;;;5092883;28;20240;-77
2023/06/18 05:01:09;;;;;;;6.47;5.87;;;14.00;1.00;;;;;;5092792;28;20181;-77
2023/06/18 05:03:34;;;;;;;7.27;5.57;;;14.10;1.00;;;;;;5092998;28;20239;-77
2023/06/18 05:06:00;;;;;;;6.73;5.80;;;14.20;1.00;;;;;;5091305;28;20178;-78
2023/06/18 05:08:26;;;;;;;6.20;5.20;;;14.30;1.00;;;;;;5092567;28;20170;-77
2023/06/18 05:10:52;;;;;;;6.30;5.60;;;14.40;1.00;;;;;;5092474;28;20539;-77
2023/06/18 05:13:17;;;;;;;6.13;5.33;;;14.40;1.00;;;;;;5092579;28;20657;-77
2023/06/18 05:15:43;;;;;;;6.30;5.67;;;14.50;1.00;;;;;;5092981;28;20178;-75
2023/06/18 05:18:08;;;;;;;5.90;5.30;;;14.60;1.00;;;;;;5092998;28;20173;-77
2023/06/18 05:20:34;;;;;;;9.90;5.37;;;14.70;1.00;;;;;;5091958;28;20185;-77
2023/06/18 05:22:59;;;;;;;9.03;5.60;;;14.70;1.00;;;;;;5092362;28;20688;-77
2023/06/18 05:25:25;;;;;;;9.23;5.57;;;14.80;1.00;;;;;;5091057;28;20269;-76
2023/06/18 05:27:50;;;;;;;7.07;5.87;;;14.90;1.00;;;;;;5091263;28;20209;-78
2023/06/18 05:30:16;;;;;;;7.67;5.73;;;15.00;1.00;;;;;;5092520;28;20194;-77
2023/06/18 05:32:41;;;;;;;7.77;5.53;;;15.10;1.00;;;;;;5092483;28;20247;-77
2023/06/18 05:35:07;;;;;;;6.10;5.50;;;15.10;1.00;;;;;;5094780;28;20223;-79
2023/06/18 05:37:33;;;;;;;6.27;5.60;;;15.20;1.00;;;;;;5098476;28;20675;-80
2023/06/18 05:39:58;;;;;;;8.33;5.90;;;15.30;1.00;;;;;;5096579;28;20577;-79
2023/06/18 05:42:24;;;;;;;5.80;5.10;;;15.40;1.00;;;;;;5093356;28;20215;-78
2023/06/18 05:44:49;;;;;;;6.07;5.30;;;15.40;1.00;;;;;;5093875;28;20270;-79
2023/06/18 05:47:15;;;;;;;7.77;5.97;;;15.40;1.00;;;;;;5093673;28;20525;-80
2023/06/18 05:49:40;;;;;;;7.50;5.47;;;15.40;1.00;;;;;;5094858;28;20197;-79
2023/06/18 05:52:06;;;;;;;7.77;5.63;;;15.60;1.00;;;;;;5094380;28;20251;-78
2023/06/18 05:54:32;;;;;;;7.40;5.60;;;15.70;1.00;;;;;;5092757;28;20710;-79
2023/06/18 05:56:57;;;;;;;7.30;6.07;;;15.80;1.00;;;;;;5093583;28;20174;-79
2023/06/18 05:59:23;;;;;;;7.57;6.10;;;15.80;1.00;;;;;;5093322;28;20174;-78
2023/06/18 06:01:48;;;;;;;6.90;5.83;;;15.90;1.00;;;;;;5095432;28;20332;-79
2023/06/18 06:04:14;;;;;;;7.30;5.07;;;16.00;1.00;;;;;;5098414;28;20191;-77
2023/06/18 06:06:40;;;;;;;6.17;5.40;;;16.20;1.00;;;;;;5098348;28;20174;-79
2023/06/18 06:09:06;;;;;;;6.80;5.90;;;16.20;1.00;;;;;;5097024;28;20194;-80
2023/06/18 06:11:36;;;;;;;6.37;5.40;;;16.30;1.00;;;;;;5098765;28;20266;-78
2023/06/18 06:14:01;;;;;;;7.43;5.57;;;16.40;1.00;;;;;;5098151;28;20182;-79
2023/06/18 06:16:27;;;;;;;12.63;5.67;;;16.50;1.00;;;;;;5097886;28;20174;-79
2023/06/18 06:18:53;;;;;;;6.17;5.13;;;16.60;1.00;;;;;;5098300;28;20171;-80
2023/06/18 06:21:19;;;;;;;8.23;5.33;;;16.70;1.00;;;;;;5097074;28;20208;-79
2023/06/18 06:23:45;;;;;;;6.80;4.97;;;16.80;1.00;;;;;;5096858;28;20198;-79
2023/06/18 06:26:10;;;;;;;9.33;5.40;;;16.90;1.00;;;;;;5098486;28;20190;-79
2023/06/18 06:28:36;;;;;;;5.53;5.00;;;17.00;1.00;;;;;;5097001;28;20202;-80
2023/06/18 06:31:01;;;;;;;6.23;5.63;;;17.20;1.00;;;;;;5096369;28;20170;-79
2023/06/18 06:33:27;;;;;;;7.73;4.70;;;17.30;1.00;;;;;;5097052;28;20669;-79
2023/06/18 06:35:52;;;;;;;6.20;4.80;;;17.40;1.00;;;;;;5096673;28;20170;-78
2023/06/18 06:38:18;;;;;;;6.30;5.37;;;17.60;1.00;;;;;;5096834;28;20174;-80
2023/06/18 06:40:43;;;;;;;8.87;5.30;;;17.60;1.00;;;;;;5096223;28;20242;-79
2023/06/18 06:43:09;;;;;;;6.77;4.77;;;17.80;99.90;;;;;;5096315;28;20335;-79
2023/06/18 06:45:35;;;;;;;7.80;5.13;;;17.90;99.90;;;;;;5098184;28;20198;-79
2023/06/18 06:48:00;;;;;;;7.93;4.83;;;18.10;99.90;;;;;;5098205;28;20645;-79
2023/06/18 06:50:26;;;;;;;6.20;4.27;;;18.20;99.90;;;;;;5097037;28;20238;-80
2023/06/18 06:52:51;;;;;;;7.10;4.97;;;18.30;99.90;;;;;;5097658;28;20718;-79
2023/06/18 06:55:17;;;;;;;6.00;5.13;;;18.40;99.90;;;;;;5100814;28;20514;-80
2023/06/18 06:57:42;;;;;;;5.43;4.87;;;18.50;99.90;;;;;;5114173;28;20186;-80
2023/06/18 07:00:10;;;;;;;6.47;4.27;;;18.60;99.90;;;;;;5118947;28;20170;-80
2023/06/18 07:02:36;;;;;;;7.43;4.97;;;18.70;99.90;;;;;;5115519;28;20198;-80
2023/06/18 07:05:02;;;;;;;6.93;4.43;;;18.80;99.90;;;;;;5098096;28;20174;-81
2023/06/18 07:07:27;;;;;;;6.90;5.03;;;19.00;99.90;;;;;;5096321;28;20209;-80
2023/06/18 07:09:53;;;;;;;7.57;4.83;;;19.00;99.90;;;;;;5097070;28;20194;-80
2023/06/18 07:12:18;;;;;;;5.50;4.30;;;19.10;99.90;;;;;;5095032;28;20638;-79
2023/06/18 07:14:44;;;;;;;5.60;4.63;;;19.20;99.90;;;;;;5096969;28;20173;-80
2023/06/18 07:17:09;;;;;;;4.73;4.23;;;19.30;99.90;;;;;;5097837;28;20699;-80
2023/06/18 07:19:35;;;;;;;6.07;4.40;;;19.50;99.90;;;;;;5097258;28;20166;-80
2023/06/18 07:22:00;;;;;;;5.67;4.90;;;19.50;99.90;;;;;;5097075;28;20194;-80
2023/06/18 07:24:26;;;;;;;6.33;5.27;;;19.70;99.90;;;;;;5095388;28;20224;-81
2023/06/18 07:26:51;;;;;;;5.17;4.63;;;19.80;99.90;;;;;;5095848;28;20186;-79
2023/06/18 07:29:17;;;;;;;5.90;4.37;;;19.90;99.90;;;;;;5095533;28;20564;-81
2023/06/18 07:31:42;;;;;;;6.53;4.93;;;20.20;99.90;;;;;;5095778;28;20170;-81
2023/06/18 07:34:08;;;;;;;5.37;4.43;;;20.20;99.90;;;;;;5097132;28;20251;-80
2023/06/18 07:36:33;;;;;;;5.43;4.40;;;20.30;91.10;;;;;;5097430;28;20564;-80
2023/06/18 07:38:59;;;;;;;6.70;4.83;;;20.50;99.90;;;;;;5098954;28;20186;-81
2023/06/18 07:41:25;;;;;;;5.67;4.50;;;20.60;41.10;;;;;;5096993;28;20175;-80
2023/06/18 07:43:50;;;;;;;5.67;4.60;;;20.80;1.00;;;;;;5098859;28;20198;-81
2023/06/18 07:46:16;;;;;;;11.00;4.73;;;20.90;1.00;;;;;;5098181;28;20315;-81
2023/06/18 07:48:41;;;;;;;6.50;4.60;;;21.10;1.00;;;;;;5098711;28;20220;-81
2023/06/18 07:51:07;;;;;;;5.27;4.47;;;21.20;1.00;;;;;;5097531;28;20170;-80
2023/06/18 07:53:33;;;;;;;6.43;4.30;;;21.40;1.00;;;;;;5101886;28;20193;-80
2023/06/18 07:55:59;;;;;;;6.03;4.40;;;21.40;1.00;;;;;;5109629;28;20174;-81
2023/06/18 07:58:25;;;;;;;5.67;4.40;;;21.70;1.00;;;;;;5111926;28;20177;-79
2023/06/18 08:00:50;;;;;;;7.57;5.10;;;21.80;1.00;;;;;;5112418;28;20170;-78
2023/06/18 08:03:16;;;;;;;5.20;4.47;;;22.00;1.00;;;;;;5114143;28;20179;-79
2023/06/18 08:05:42;;;;;;;6.27;4.20;;;22.10;99.90;;;;;;5112583;28;20196;-79
2023/06/18 08:08:07;;;;;;;6.30;4.60;;;22.10;99.90;;;;;;5100816;28;20221;-79
2023/06/18 08:10:33;;;;;;;5.47;4.37;;;22.30;99.90;;;;;;5101214;28;20198;-78
2023/06/18 08:12:58;;;;;;;7.20;5.00;;;22.30;99.90;;;;;;5101033;28;20197;-79
2023/06/18 08:15:24;;;;;;;5.77;4.90;;;22.40;99.90;;;;;;5099701;28;20170;-79
2023/06/18 08:17:49;;;;;;;6.90;4.83;;;22.40;99.90;;;;;;5099608;28;20210;-81
2023/06/18 08:20:15;;;;;;;8.33;4.87;;;22.60;99.90;;;;;;5108876;28;20628;-81
2023/06/18 08:22:40;;;;;;;6.03;4.83;;;22.70;1.00;;;;;;5107215;28;20316;-81
2023/06/18 08:25:06;;;;;;;7.27;4.40;;;22.90;90.10;;;;;;5105805;28;20200;-80
2023/06/18 08:27:32;;;;;;;5.70;4.73;;;22.80;99.90;;;;;;5107377;28;20170;-81
2023/06/18 08:29:58;;;;;;;5.73;4.90;;;23.00;99.90;;;;;;5106747;28;20310;-80
2023/06/18 08:32:24;;;;;;;5.87;4.47;;;23.00;99.90;;;;;;5107486;28;20543;-79
2023/06/18 08:34:49;;;;;;;5.77;4.87;;;23.20;99.90;;;;;;5105336;28;20184;-81
2023/06/18 08:37:15;;;;;;;9.03;4.20;;;23.20;35.40;;;;;;5107259;28;20265;-81
2023/06/18 08:39:40;;;;;;;4.70;4.03;;;23.40;17.80;;;;;;5107063;28;20197;-82
2023/06/18 08:42:06;;;;;;;4.57;4.13;;;23.50;32.20;;;;;;5105496;28;20199;-82
2023/06/18 08:44:35;;;;;;;5.03;4.43;;;23.60;1.00;;;;;;5101171;28;20284;-81
2023/06/18 08:47:03;;;;;;;8.20;4.90;;;23.70;1.00;;;;;;5098045;28;20226;-77
2023/06/18 08:49:33;;;;;;;7.43;4.90;;;23.90;1.00;;;;;;5102661;28;20596;-79
2023/06/18 08:52:08;;;;;;;5.67;4.67;;;23.90;1.00;;;;;;5098886;28;20185;-77
2023/06/18 08:54:37;;;;;;;6.57;4.30;;;24.00;99.90;;;;;;5096790;28;20250;-80
2023/06/18 08:57:24;;;;;;;7.10;4.63;;;24.10;1.00;;;;;;5098076;28;20189;-79
2023/06/18 08:59:50;;;;;;;5.80;4.70;;;24.20;99.90;;;;;;5101150;28;20163;-77
2023/06/18 09:02:20;;;;;;;4.80;4.17;;;24.30;1.00;;;;;;5102141;28;20186;-79
2023/06/18 09:04:46;;;;;;;4.70;4.17;;;24.30;99.90;;;;;;5098694;28;20201;-78
2023/06/18 09:07:12;;;;;;;5.27;4.53;;;24.40;1.00;;;;;;5097722;28;20245;-80
2023/06/18 09:09:37;;;;;;;5.90;4.40;;;24.40;1.00;;;;;;5096013;28;20190;-77
2023/06/18 09:12:03;;;;;;;6.80;5.00;;;24.40;99.90;;;;;;5097903;28;20162;-80
2023/06/18 09:14:29;;;;;;;6.90;4.67;;;24.50;1.00;;;;;;5094936;28;20643;-77
2023/06/18 09:16:56;;;;;;;5.07;4.47;;;24.50;99.90;;;;;;5097263;28;20198;-77
2023/06/18 09:19:23;;;;;;;6.63;4.70;;;24.70;1.00;;;;;;5098261;28;20224;-77
2023/06/18 09:21:49;;;;;;;6.20;5.10;;;24.80;25.20;;;;;;5096966;28;20173;-79
2023/06/18 09:24:22;;;;;;;6.03;4.80;;;24.90;1.00;;;;;;5102967;28;20197;-78
2023/06/18 09:26:50;;;;;;;5.17;4.37;;;24.90;99.90;;;;;;5101483;28;20165;-79
2023/06/18 09:29:15;;;;;;;8.57;4.60;;;25.20;99.90;;;;;;5099759;28;20285;-78
2023/06/18 09:31:46;;;;;;;8.93;4.80;;;25.20;99.90;;;;;;5098233;28;20213;-78
2023/06/18 09:34:13;;;;;;;5.63;4.80;;;25.20;1.00;;;;;;5101133;28;20189;-79
2023/06/18 09:36:43;;;;;;;6.80;5.27;;;25.40;94.00;;;;;;5098567;28;20170;-78
2023/06/18 09:39:19;;;;;;;6.70;4.93;;;25.30;1.00;;;;;;5106743;28;20170;-79
2023/06/18 09:41:46;;;;;;;8.33;5.00;;;25.50;1.00;;;;;;5106379;28;20245;-77
2023/06/18 09:44:15;;;;;;;7.30;4.95;;;25.50;1.00;;;;;;5103462;28;20566;-79
2023/06/18 09:46:46;;;;;;;5.57;4.53;;;25.70;1.00;;;;;;5105933;28;20178;-78
2023/06/18 09:49:13;;;;;;;7.33;4.50;;;25.90;1.00;;;;;;5105118;28;20615;-79
2023/06/18 09:51:43;;;;;;;5.68;4.93;;;26.00;1.00;;;;;;5103741;28;20167;-78
2023/06/18 09:54:09;;;;;;;5.95;4.80;;;26.00;99.90;;;;;;5105551;28;20197;-79
2023/06/18 09:56:35;;;;;;;7.13;4.90;;;26.00;99.90;;;;;;5105567;28;20174;-78
2023/06/18 09:59:03;;;;;;;7.15;5.07;;;26.10;99.90;;;;;;5106484;28;20249;-79
2023/06/18 10:01:46;;;;;;;5.77;5.13;;;26.20;99.90;;;;;;5103880;28;20253;-79
2023/06/18 10:04:12;;;;;;;7.00;4.63;;;26.30;99.90;;;;;;5105946;28;20190;-78
2023/06/18 10:06:40;;;;;;;6.22;5.00;;;26.30;99.90;;;;;;5105881;28;20235;-78
2023/06/18 10:09:08;;;;;;;6.50;5.15;;;26.30;99.90;;;;;;5105767;28;20198;-78
2023/06/18 10:11:35;;;;;;;5.75;4.65;;;26.30;99.90;;;;;;5103646;28;20171;-78
2023/06/18 10:14:11;;;;;;;6.63;4.90;;;26.30;1.00;;;;;;5107668;28;20197;-78
2023/06/18 10:16:40;;;;;;;7.38;4.70;;;26.40;1.00;;;;;;5105696;28;20172;-78
2023/06/18 10:19:29;;;;;;;5.43;4.70;;;26.40;99.90;;;;;;5105373;28;20189;-78
2023/06/18 10:21:59;;;;;;;6.05;4.93;;;26.50;1.00;;;;;;5107384;28;20155;-79
2023/06/18 10:24:57;;;;;;;6.05;4.65;;;26.60;1.00;;;;;;5105745;28;20214;-79
2023/06/18 10:27:24;;;;;;;7.00;4.88;;;26.60;99.90;;;;;;5105146;28;20187;-79
2023/06/18 10:29:50;;;;;;;6.32;4.85;;;26.60;99.90;;;;;;5107009;28;20229;-78
2023/06/18 10:32:15;;;;;;;9.30;5.13;;;26.60;99.90;;;;;;5108625;28;20196;-79
2023/06/18 10:34:42;;;;;;;6.93;4.40;;;26.60;99.90;;;;;;5117508;28;20208;-78
2023/06/18 10:37:09;;;;;;;8.10;4.32;;;26.60;99.90;;;;;;5117932;28;20174;-77
2023/06/18 10:39:35;;;;;;;5.43;4.72;;;26.60;99.90;;;;;;5114994;28;20248;-78
2023/06/18 10:42:12;;;;;;;5.22;4.13;;;26.60;99.90;;;;;;5103636;28;20186;-79
2023/06/18 10:44:47;;;;;;;10.13;4.53;;;26.80;99.90;;;;;;5103034;28;20194;-78
2023/06/18 10:47:20;;;;;;;8.63;4.38;;;26.80;73.30;;;;;;5103166;28;20201;-79
2023/06/18 10:50:04;;;;;;;5.47;4.53;;;26.80;99.90;;;;;;5101670;28;20681;-80
2023/06/18 10:52:32;;;;;;;7.07;4.35;;;26.90;99.90;;;;;;5101372;28;20212;-81
2023/06/18 10:55:10;;;;;;;5.47;4.35;;;27.00;99.90;;;;;;5100871;28;20171;-80
2023/06/18 10:57:37;;;;;;;4.72;4.20;;;27.20;99.90;;;;;;5103909;28;20197;-80
2023/06/18 11:00:34;;;;;;;5.28;4.35;;;27.10;99.90;;;;;;5103489;28;20182;-79
2023/06/18 11:03:16;;;;;;;6.75;4.38;;;27.40;99.90;;;;;;5086964;28;20202;-80
2023/06/18 11:05:51;;;;;;;6.18;3.90;;;27.50;11.60;;;;;;5102754;28;20178;-81
2023/06/18 11:08:28;;;;;;;7.90;4.43;;;27.50;22.90;;;;;;5102753;28;20495;-79
2023/06/18 11:11:05;;;;;;;4.10;3.70;;;27.60;99.90;;;;;;5102868;28;20158;-81
2023/06/18 11:13:39;;;;;;;4.57;4.10;;;27.80;99.90;;;;;;5102066;28;20256;-80
2023/06/18 11:16:16;;;;;;;7.28;4.32;;;27.90;99.90;;;;;;5103133;28;20166;-81
2023/06/18 11:18:43;;;;;;;5.25;4.28;;;28.10;99.90;;;;;;5096910;28;20651;-81
2023/06/18 11:21:18;;;;;;;5.68;4.00;;;28.10;22.60;;;;;;5096555;28;20166;-81
2023/06/18 11:23:44;;;;;;;5.82;4.00;;;28.00;1.00;;;;;;5095107;28;20198;-81
2023/06/18 11:26:14;;;;;;;6.35;4.03;;;28.10;1.00;;;;;;5097177;28;20220;-81
2023/06/18 11:28:41;;;;;;;5.55;4.22;;;28.10;1.00;;;;;;5095407;28;20217;-82
2023/06/18 11:31:06;;;;;;;5.20;3.65;;;28.10;1.00;;;;;;5095217;28;20175;-80
2023/06/18 11:33:32;;;;;;;5.63;3.65;;;28.10;1.00;;;;;;5095551;28;20194;-81
2023/06/18 11:36:12;;;;;;;5.82;4.25;;;28.10;1.00;;;;;;5095442;28;20637;-82
2023/06/18 11:38:39;;;;;;;4.88;4.30;;;28.30;1.00;;;;;;5094635;28;20208;-81
2023/06/18 11:41:05;;;;;;;5.75;4.60;;;28.40;64.20;;;;;;5097118;28;20635;-81
2023/06/18 11:43:51;;;;;;;6.70;4.15;;;28.30;21.30;;;;;;5096381;28;20279;-81
2023/06/18 11:46:39;;;;;;;6.07;4.22;;;28.40;99.90;;;;;;5095335;28;20166;-81
2023/06/18 11:49:13;;;;;;;5.18;4.30;;;28.50;99.90;;;;;;5097144;28;20221;-82
2023/06/18 11:51:39;;;;;;;6.03;4.20;;;28.50;99.90;;;;;;5094599;28;20208;-81
2023/06/18 11:54:05;;;;;;;4.90;4.13;;;28.50;1.00;;;;;;5096060;28;20194;-80
2023/06/18 11:56:30;;;;;;;5.20;4.03;;;28.60;1.00;;;;;;5096283;28;20174;-80
2023/06/18 11:58:57;;;;;;;6.05;3.53;;;28.60;1.00;;;;;;5094512;28;20521;-79
2023/06/18 12:01:30;;;;;;;4.85;4.30;;;28.60;1.00;;;;;;5094042;28;20268;-81
2023/06/18 12:04:03;;;;;;;7.47;4.22;;;28.50;1.00;;;;;;5095861;28;20205;-81
2023/06/18 12:06:29;;;;;;;8.63;4.40;;;28.70;1.00;;;;;;5095637;28;20181;-82
2023/06/18 12:09:09;;;;;;;6.97;4.55;;;28.70;1.00;;;;;;5094581;28;20227;-80
2023/06/18 12:11:59;;;;;;;4.70;4.20;;;28.90;1.00;;;;;;5093995;28;20197;-81
2023/06/18 12:15:02;;;;;;;6.03;3.85;;;29.00;1.00;;;;;;5096276;28;20564;-81
2023/06/18 12:17:33;;;;;;;7.38;4.20;;;29.20;1.00;;;;;;5098332;28;20173;-81
2023/06/18 12:20:11;;;;;;;4.97;4.00;;;29.00;1.00;;;;;;5095958;28;20166;-80
2023/06/18 12:22:38;;;;;;;7.43;4.18;;;29.10;1.00;;;;;;5095703;28;20214;-80
2023/06/18 12:25:04;;;;;;;6.57;4.00;;;29.10;1.00;;;;;;5096035;28;20189;-81
2023/06/18 12:27:30;;;;;;;7.05;4.35;;;29.10;1.00;;;;;;5096139;28;20180;-82
2023/06/18 12:29:59;;;;;;;13.52;4.38;;;29.10;1.00;;;;;;5096338;28;20288;-80
2023/06/18 12:32:25;;;;;;;7.05;3.97;;;29.10;1.00;;;;;;5095371;28;20621;-81
2023/06/18 12:34:51;;;;;;;7.18;4.05;;;29.00;1.00;;;;;;5093951;28;20184;-81
2023/06/18 12:37:16;;;;;;;4.65;4.07;;;29.00;1.00;;;;;;5095213;28;20172;-80
2023/06/18 12:40:09;;;;;;;4.90;4.18;;;29.00;1.00;;;;;;5095489;28;20176;-80
2023/06/18 12:42:34;;;;;;;4.70;4.20;;;29.00;1.00;;;;;;5085845;28;20187;-80
2023/06/18 12:45:00;;;;;;;6.45;3.72;;;29.00;1.00;;;;;;5096589;28;20186;-81
2023/06/18 12:47:26;;;;;;;5.88;3.75;;;28.90;1.00;;;;;;5097016;28;20257;-80
2023/06/18 12:49:52;;;;;;;10.27;4.13;;;28.90;1.00;;;;;;5096909;28;20251;-79
2023/06/18 12:52:19;;;;;;;4.30;3.90;;;28.80;16.40;;;;;;5097279;28;20645;-81
2023/06/18 12:54:45;;;;;;;5.60;3.97;;;28.70;99.90;;;;;;5098463;28;20170;-81
2023/06/18 12:57:14;;;;;;;5.57;3.90;;;28.70;98.50;;;;;;5097449;28;20174;-80